createdAt,value
2022-09-15T16:09:39.696Z,5.33
2022-09-15T16:12:08.239Z,4.68
2022-09-15T16:34:17.981Z,5.23
2022-09-15T16:36:44.754Z,4.65
2022-09-15T16:39:11.534Z,5.75
2022-09-15T16:41:39.429Z,4.68
2022-09-15T16:44:16.026Z,5.70
2022-09-15T16:49:09.596Z,5.07
2022-09-15T17:06:55.354Z,10.82
2022-09-15T17:09:22.226Z,11.15
2022-09-15T17:11:49.087Z,12.77
2022-09-15T17:14:17.202Z,15.88
2022-09-15T17:16:47.469Z,16.38
2022-09-15T17:19:14.406Z,20.42
2022-09-15T17:21:41.586Z,17.45
2022-09-15T17:24:09.276Z,19.58
2022-09-15T17:26:36.096Z,21.45
2022-09-15T17:29:03.019Z,18.02
2022-09-15T17:31:30.034Z,16.05
2022-09-15T17:33:57.247Z,13.05
2022-09-15T17:36:24.266Z,13.75
2022-09-15T17:38:51.166Z,10.65
2022-09-15T17:41:20.601Z,8.45
2022-09-15T17:43:47.968Z,10.48
2022-09-15T17:46:15.513Z,7.03
2022-09-15T17:48:42.608Z,6.70
2022-09-15T17:51:15.767Z,6.30
2022-09-15T17:53:43.088Z,6.07
2022-09-15T17:56:10.007Z,5.53
2022-09-15T17:58:37.046Z,6.07
2022-09-15T18:01:04.116Z,5.70
2022-09-15T18:03:37.119Z,5.28
2022-09-15T18:06:08.556Z,4.90
2022-09-15T18:08:36.398Z,4.85
2022-09-15T18:11:04.608Z,4.38
2022-09-15T18:13:32.111Z,4.40
2022-09-15T18:16:04.954Z,4.82
2022-09-15T18:18:31.877Z,4.72
2022-09-15T18:20:59.026Z,4.05
2022-09-15T18:23:29.704Z,4.50
2022-09-15T18:25:57.247Z,7.70
2022-09-15T18:28:24.140Z,6.30
2022-09-15T18:30:51.498Z,5.70
2022-09-15T18:33:21.304Z,4.85
2022-09-15T18:35:50.035Z,4.63
2022-09-15T18:38:17.906Z,4.40
2022-09-15T18:40:56.114Z,7.32
2022-09-15T18:43:25.322Z,5.32
2022-09-15T18:45:55.195Z,5.28
2022-09-15T18:48:22.111Z,4.45
2022-09-15T18:50:49.087Z,4.57
2022-09-15T18:53:16.017Z,4.03
2022-09-15T18:55:43.447Z,4.93
2022-09-15T18:58:11.546Z,4.47
2022-09-15T19:00:39.054Z,4.50
2022-09-15T19:03:09.683Z,4.40
2022-09-15T19:05:37.199Z,4.57
2022-09-15T19:08:04.599Z,4.22
2022-09-15T19:10:31.594Z,5.18
2022-09-15T19:12:58.424Z,4.93
2022-09-15T19:15:25.286Z,4.20
2022-09-15T19:17:52.356Z,4.45
2022-09-15T19:20:19.390Z,4.50
2022-09-15T19:22:46.477Z,3.67
2022-09-15T19:25:14.010Z,4.22
2022-09-15T19:27:41.711Z,5.07
2022-09-15T19:30:12.336Z,4.57
2022-09-15T19:32:40.016Z,4.40
2022-09-15T19:35:08.473Z,4.35
2022-09-15T19:37:39.877Z,5.47
2022-09-15T19:40:10.027Z,5.53
2022-09-15T19:42:38.710Z,4.82
2022-09-15T19:45:06.497Z,8.02
2022-09-15T19:47:33.782Z,7.05
2022-09-15T19:50:00.737Z,6.32
2022-09-15T19:52:28.474Z,4.75
2022-09-15T19:54:58.054Z,4.45
2022-09-15T19:57:24.966Z,4.35
2022-09-15T19:59:51.918Z,4.55
2022-09-15T20:02:20.170Z,4.70
2022-09-15T20:04:47.863Z,4.95
2022-09-15T20:07:15.267Z,4.35
2022-09-15T20:09:42.492Z,4.40
2022-09-15T20:12:09.617Z,4.45
2022-09-15T20:14:36.699Z,4.45
2022-09-15T20:17:04.239Z,3.95
2022-09-15T20:19:31.201Z,3.90
2022-09-15T20:21:58.413Z,5.03
2022-09-15T20:24:25.784Z,4.45
2022-09-15T20:26:52.833Z,4.68
2022-09-15T20:29:20.564Z,5.00
2022-09-15T20:31:48.245Z,4.85
2022-09-15T20:34:15.543Z,3.92
2022-09-15T20:36:42.799Z,3.90
2022-09-15T20:39:13.615Z,4.63
2022-09-15T20:41:42.400Z,3.72
2022-09-15T20:44:09.636Z,3.92
2022-09-15T20:46:36.787Z,3.95
2022-09-15T20:49:05.048Z,4.07
2022-09-15T20:51:33.844Z,4.03
2022-09-15T20:54:03.663Z,4.00
2022-09-15T20:56:32.359Z,4.30
2022-09-15T20:59:00.810Z,3.20
2022-09-15T21:01:32.055Z,3.10
2022-09-15T21:03:59.205Z,3.65
2022-09-15T21:06:28.043Z,3.67
2022-09-15T21:08:59.003Z,3.55
2022-09-15T21:11:27.879Z,4.55
2022-09-15T21:13:56.073Z,4.43
2022-09-15T21:16:26.200Z,3.90
2022-09-15T21:18:53.996Z,3.72
2022-09-15T21:21:23.507Z,4.68
2022-09-15T21:24:00.557Z,4.50
2022-09-15T21:26:58.373Z,4.68
2022-09-15T21:29:26.645Z,4.90
2022-09-15T21:31:55.934Z,5.15
2022-09-15T21:34:24.146Z,4.68
2022-09-15T21:36:52.016Z,10.07
2022-09-15T21:39:19.187Z,8.63
2022-09-15T21:41:46.128Z,5.47
2022-09-15T21:44:13.253Z,4.80
2022-09-15T21:46:40.201Z,4.60
2022-09-15T21:49:08.302Z,3.40
2022-09-15T21:51:35.346Z,4.20
2022-09-15T21:54:02.351Z,3.33
2022-09-15T21:56:30.482Z,3.85
2022-09-15T21:58:57.646Z,4.05
2022-09-15T22:01:28.080Z,4.20
2022-09-15T22:04:04.647Z,3.53
2022-09-15T22:06:34.476Z,3.72
2022-09-15T22:09:04.873Z,3.88
2022-09-15T22:11:31.962Z,3.78
2022-09-15T22:13:59.235Z,6.75
2022-09-15T22:16:26.479Z,4.82
2022-09-15T22:18:53.842Z,6.03
2022-09-15T22:21:26.447Z,4.05
2022-09-15T22:23:57.733Z,3.92
2022-09-15T22:26:27.560Z,4.13
2022-09-15T22:28:55.389Z,3.70
2022-09-15T22:31:24.309Z,3.58
2022-09-15T22:33:52.374Z,3.50
2022-09-15T22:36:26.468Z,3.50
2022-09-15T22:38:56.763Z,3.30
2022-09-15T22:41:26.003Z,4.20
2022-09-15T22:43:53.028Z,3.28
2022-09-15T22:46:21.265Z,3.63
2022-09-15T22:48:48.380Z,4.20
2022-09-15T22:51:15.938Z,4.13
2022-09-15T22:53:43.317Z,3.80
2022-09-15T22:56:22.148Z,3.45
2022-09-15T22:58:50.614Z,3.83
2022-09-15T23:01:20.436Z,3.45
2022-09-15T23:03:54.849Z,3.65
2022-09-15T23:06:23.406Z,3.67
2022-09-15T23:08:54.929Z,3.78
2022-09-15T23:11:22.912Z,3.65
2022-09-15T23:13:52.317Z,4.18
2022-09-15T23:16:19.650Z,3.72
2022-09-15T23:18:47.002Z,3.78
2022-09-15T23:21:14.636Z,4.50
2022-09-15T23:23:43.466Z,3.55
2022-09-15T23:26:12.028Z,3.53
2022-09-15T23:28:39.410Z,3.70
2022-09-15T23:31:07.656Z,3.67
2022-09-15T23:33:34.937Z,3.63
2022-09-15T23:36:03.221Z,3.80
2022-09-15T23:38:30.388Z,4.13
2022-09-15T23:40:58.005Z,4.28
2022-09-15T23:43:25.043Z,4.55
2022-09-15T23:45:52.130Z,3.85
2022-09-15T23:48:19.318Z,4.50
2022-09-15T23:50:46.719Z,4.32
2022-09-15T23:53:13.714Z,4.32
2022-09-15T23:55:40.896Z,4.13
2022-09-15T23:58:07.923Z,3.97
